Time;durP1;ratioP1;P1;durP2;ratioP2;P2;SDS_P1;SDS_P2;PMS_P1;PMS_P2;Temp;Humidity;BMP_temperature;BMP_pressure;BME280_temperature;BME280_humidity;BME280_pressure;Samples;Min_cycle;Max_cycle;Signal;HPM_P1;HPM_P2
2022/05/22 00:00:12;;;;;;;4.70;3.72;;;;;;;21.71;42.67;93651.97;4957288;28;20042;-73
2022/05/22 00:02:38;;;;;;;5.13;3.65;;;;;;;21.49;42.77;93642.31;4971895;28;20046;-74
2022/05/22 00:05:04;;;;;;;5.18;2.95;;;;;;;21.37;42.82;93636.09;4965073;28;20026;-74
2022/05/22 00:07:30;;;;;;;3.83;3.42;;;;;;;21.32;43.12;93639.19;4962441;28;20045;-73
2022/05/22 00:09:55;;;;;;;4.13;3.65;;;;;;;21.28;43.34;93654.63;4975814;28;20038;-74
2022/05/22 00:12:20;;;;;;;4.10;3.17;;;;;;;21.37;43.07;93651.56;4959598;28;20061;-73
2022/05/22 00:14:46;;;;;;;5.93;4.18;;;;;;;21.29;43.10;93633.78;4973736;28;20041;-74
2022/05/22 00:17:11;;;;;;;4.25;3.78;;;;;;;21.37;43.14;93646.91;4967161;28;20058;-74
2022/05/22 00:19:38;;;;;;;4.28;3.80;;;;;;;21.43;42.68;93656.22;4977616;28;20026;-74
2022/05/22 00:22:05;;;;;;;4.80;4.03;;;;;;;21.31;43.23;93636.88;4968767;28;20039;-74
2022/05/22 00:24:31;;;;;;;5.05;3.30;;;;;;;21.35;42.82;93621.44;4969771;28;20042;-74
2022/05/22 00:27:02;;;;;;;4.25;2.90;;;;;;;21.51;42.88;93642.69;4948737;28;20363;-74
2022/05/22 00:29:28;;;;;;;3.55;3.15;;;;;;;21.44;42.63;93619.88;4956493;28;20509;-74
2022/05/22 00:31:53;;;;;;;3.53;2.97;;;;;;;21.56;42.79;93621.44;4960500;28;20997;-73
2022/05/22 00:34:19;;;;;;;4.45;3.28;;;;;;;21.62;42.39;93636.13;4978323;28;20126;-72
2022/05/22 00:36:44;;;;;;;4.45;3.08;;;;;;;21.38;42.77;93636.88;4966455;28;20514;-74
2022/05/22 00:39:10;;;;;;;3.85;3.45;;;;;;;21.22;43.10;93622.94;4972473;28;20042;-74
2022/05/22 00:41:36;;;;;;;3.95;3.38;;;;;;;21.29;42.79;93623.75;4973037;28;20393;-74
2022/05/22 00:44:03;;;;;;;3.90;3.40;;;;;;;21.29;43.07;93639.97;4962172;28;20065;-73
2022/05/22 00:46:29;;;;;;;3.47;2.97;;;;;;;21.19;43.46;93640.72;4977501;28;20061;-74
2022/05/22 00:49:09;;;;;;;6.43;3.72;;;;;;;21.03;43.43;93622.16;4961759;28;21494;-75
2022/05/22 00:51:44;;;;;;;5.30;3.05;;;;;;;21.03;43.60;93634.88;4979717;28;20112;-74
2022/05/22 00:54:38;;;;;;;5.15;3.40;;;;;;;21.01;43.62;93635.28;4976951;28;20030;-74
2022/05/22 00:57:26;;;;;;;4.07;3.03;;;;;;;20.93;43.67;93612.09;4964561;28;20101;-74
2022/05/22 00:59:59;;;;;;;6.80;3.60;;;;;;;20.94;43.60;93607.44;4970970;28;20034;-73
2022/05/22 01:02:27;;;;;;;3.78;3.03;;;;;;;21.10;43.11;93624.09;4965661;28;20389;-73
2022/05/22 01:04:52;;;;;;;6.00;3.05;;;;;;;20.99;43.00;93615.19;4972832;28;20034;-74
2022/05/22 01:07:19;;;;;;;3.75;3.30;;;;;;;21.00;42.47;93620.22;4981428;28;20037;-74
2022/05/22 01:09:46;;;;;;;4.75;3.03;;;;;;;21.00;42.42;93628.31;4966904;28;20038;-74
2022/05/22 01:12:19;;;;;;;3.72;3.22;;;;;;;20.95;42.36;93622.53;4976204;28;20542;-74
2022/05/22 01:14:48;;;;;;;3.92;2.70;;;;;;;20.92;41.69;93626.75;4967229;28;20495;-75
2022/05/22 01:17:14;;;;;;;3.20;2.30;;;;;;;20.73;41.91;93623.59;4971894;28;20085;-74
2022/05/22 01:19:40;;;;;;;8.15;3.15;;;;;;;20.64;42.15;93631.25;4980526;28;20018;-74
2022/05/22 01:22:15;;;;;;;3.17;2.50;;;;;;;20.63;41.90;93610.81;4970166;28;20030;-74
2022/05/22 01:24:40;;;;;;;;;;;;;;;20.75;41.00;93623.97;4978888;28;20117;-74
2022/05/22 01:27:09;;;;;;;2.50;2.10;;;;;;;20.68;40.74;93621.25;4975677;28;20178;-74
2022/05/22 01:29:35;;;;;;;3.42;2.45;;;;;;;20.74;40.29;93617.00;4969711;28;20522;-75
2022/05/22 01:32:01;;;;;;;5.75;3.20;;;;;;;20.75;39.54;93618.56;4972548;28;20080;-74
2022/05/22 01:34:26;;;;;;;3.35;2.13;;;;;;;20.77;39.17;93624.38;4967289;28;20050;-74
2022/05/22 01:36:52;;;;;;;2.78;1.90;;;;;;;20.78;38.15;93615.09;4972223;28;20038;-74
2022/05/22 01:39:17;;;;;;;2.53;2.05;;;;;;;20.77;38.11;93613.56;4974457;28;20283;-74
2022/05/22 01:41:43;;;;;;;2.75;1.90;;;;;;;20.71;37.60;93620.50;4972931;28;20048;-74
2022/05/22 01:44:08;;;;;;;3.05;1.80;;;;;;;20.77;36.79;93618.97;4975962;28;20088;-74
2022/05/22 01:46:34;;;;;;;3.30;1.75;;;;;;;20.60;36.68;93604.25;4963314;28;20062;-73
2022/05/22 01:48:59;;;;;;;2.42;2.05;;;;;;;20.63;36.73;93618.94;4977968;28;20114;-74
2022/05/22 01:51:25;;;;;;;4.43;3.05;;;;;;;20.57;36.42;93608.50;4975063;28;20504;-74
2022/05/22 01:53:51;;;;;;;2.22;1.42;;;;;;;20.74;36.42;93627.81;4975685;28;20065;-74
2022/05/22 01:56:16;;;;;;;2.08;1.77;;;;;;;20.68;35.94;93611.22;4979674;28;20523;-74
2022/05/22 01:58:42;;;;;;;1.30;1.20;;;;;;;20.83;35.49;93622.84;4969768;28;20018;-74
2022/05/22 02:01:08;;;;;;;3.75;1.95;;;;;;;20.83;34.67;93620.91;4979247;28;20510;-73
2022/05/22 02:03:34;;;;;;;2.25;1.38;;;;;;;20.34;34.80;93551.28;4960406;28;20604;-74
2022/05/22 02:06:00;;;;;;;2.47;1.42;;;;;;;20.65;34.35;93620.09;4971136;28;20816;-74
2022/05/22 02:08:26;;;;;;;2.38;1.70;;;;;;;20.72;33.75;93620.13;4974073;28;20475;-74
2022/05/22 02:11:01;;;;;;;1.40;1.15;;;;;;;20.75;33.86;93627.44;4976703;28;20739;-74
2022/05/22 02:13:32;;;;;;;1.33;1.20;;;;;;;20.73;32.96;93612.78;4974700;28;20039;-74
2022/05/22 02:15:58;;;;;;;2.55;1.30;;;;;;;20.76;32.13;93633.63;4969723;28;20035;-74
2022/05/22 02:18:23;;;;;;;1.98;1.30;;;;;;;20.79;32.43;93628.22;4975025;28;20038;-75
2022/05/22 02:20:49;;;;;;;2.05;1.30;;;;;;;20.80;31.61;93629.00;4968453;28;20035;-74
2022/05/22 02:23:17;;;;;;;1.52;1.10;;;;;;;20.81;31.13;93635.97;4976612;28;20030;-75
2022/05/22 02:25:45;;;;;;;2.40;1.13;;;;;;;20.75;31.04;93602.34;4966061;28;20038;-73
2022/05/22 02:28:14;;;;;;;2.47;1.25;;;;;;;21.00;30.52;93631.03;4977186;28;20046;-75
2022/05/22 02:30:41;;;;;;;2.22;1.35;;;;;;;20.96;30.48;93614.03;4967978;28;20430;-75
2022/05/22 02:33:07;;;;;;;0.90;0.90;;;;;;;20.77;30.26;93619.75;4978195;28;20473;-74
2022/05/22 02:35:32;;;;;;;1.52;1.33;;;;;;;20.77;30.39;93643.31;4973873;28;20117;-75
2022/05/22 02:37:58;;;;;;;2.70;1.10;;;;;;;20.76;30.52;93641.75;4966741;28;20026;-73
2022/05/22 02:40:26;;;;;;;1.90;1.40;;;;;;;20.56;30.55;93628.56;4967414;28;20030;-74
2022/05/22 02:42:52;;;;;;;2.65;1.25;;;;;;;20.65;30.33;93649.03;4966370;28;20084;-74
2022/05/22 02:45:20;;;;;;;1.23;0.90;;;;;;;20.69;30.61;93647.09;4972843;28;20034;-75
2022/05/22 02:47:46;;;;;;;1.95;1.17;;;;;;;20.73;30.23;93654.06;4971795;28;20042;-74
2022/05/22 02:50:14;;;;;;;1.58;1.15;;;;;;;20.73;30.03;93643.25;4976023;28;20317;-73
2022/05/22 02:52:39;;;;;;;2.42;1.17;;;;;;;20.76;29.27;93652.56;4976965;28;20062;-73
2022/05/22 02:55:06;;;;;;;1.25;0.95;;;;;;;20.69;29.74;93652.50;4959732;28;20158;-75
2022/05/22 02:57:33;;;;;;;3.10;1.00;;;;;;;20.63;29.32;93652.09;4972935;28;20050;-74
2022/05/22 02:59:58;;;;;;;1.08;0.80;;;;;;;20.60;29.08;93642.06;4977468;28;20070;-74
2022/05/22 03:02:25;;;;;;;1.25;1.00;;;;;;;20.63;28.89;93654.06;4959467;28;20068;-71
2022/05/22 03:04:50;;;;;;;1.92;1.27;;;;;;;20.72;28.33;93659.88;4976988;28;20080;-75
2022/05/22 03:07:18;;;;;;;1.30;0.93;;;;;;;20.71;28.08;93661.03;4970201;28;20046;-74
2022/05/22 03:09:45;;;;;;;0.98;0.80;;;;;;;20.80;27.92;93664.16;4970708;28;20121;-74
2022/05/22 03:12:17;;;;;;;0.77;0.68;;;;;;;20.72;28.21;93659.88;4960220;28;20042;-74
2022/05/22 03:14:48;;;;;;;1.33;0.90;;;;;;;20.74;27.20;93662.97;4973740;28;20092;-74
2022/05/22 03:17:14;;;;;;;1.05;0.80;;;;;;;20.55;27.34;93661.34;4966418;28;20018;-74
2022/05/22 03:19:40;;;;;;;0.50;0.50;;;;;;;20.52;26.53;93643.19;4978057;28;20030;-74
2022/05/22 03:22:07;;;;;;;0.52;0.52;;;;;;;20.59;26.05;93665.59;4970699;28;20507;-74
2022/05/22 03:24:32;;;;;;;0.60;0.60;;;;;;;20.48;25.92;93643.16;4956807;28;20153;-74
2022/05/22 03:27:01;;;;;;;1.00;0.70;;;;;;;20.63;26.01;93672.97;4977269;28;20038;-74
2022/05/22 03:29:26;;;;;;;1.23;0.90;;;;;;;20.60;25.92;93672.56;4964072;28;20404;-75
2022/05/22 03:31:52;;;;;;;3.30;0.60;;;;;;;20.66;25.65;93677.59;4974156;28;20027;-73
2022/05/22 03:34:17;;;;;;;1.70;0.70;;;;;;;20.72;25.39;93676.09;4970859;28;20038;-74
2022/05/22 03:36:43;;;;;;;0.95;0.55;;;;;;;20.75;27.49;93670.69;4973198;28;20077;-74
2022/05/22 03:39:09;;;;;;;3.17;0.80;;;;;;;20.71;27.55;93653.69;4971010;28;20042;-74
2022/05/22 03:41:36;;;;;;;0.98;0.50;;;;;;;20.74;25.88;93677.25;4958481;28;20031;-74
2022/05/22 03:44:01;;;;;;;0.80;0.60;;;;;;;20.63;25.63;93659.47;4976231;28;20029;-74
2022/05/22 03:46:26;;;;;;;0.90;0.80;;;;;;;20.72;26.84;93668.75;4954851;28;20049;-74
2022/05/22 03:48:52;;;;;;;1.30;0.88;;;;;;;20.70;25.79;93678.38;4975258;28;20494;-74
2022/05/22 03:51:17;;;;;;;0.75;0.70;;;;;;;20.90;25.93;93676.97;4971043;28;20042;-74
2022/05/22 03:53:43;;;;;;;3.67;0.70;;;;;;;20.87;29.31;93672.31;4968983;28;20830;-74
2022/05/22 03:56:11;;;;;;;1.35;0.70;;;;;;;20.97;27.74;93685.09;4977835;28;20030;-74
2022/05/22 03:58:36;;;;;;;0.52;0.52;;;;;;;20.97;26.30;93677.00;4959276;28;20446;-74
2022/05/22 04:01:02;;;;;;;1.20;0.60;;;;;;;21.03;26.53;93665.41;4975709;28;20865;-74
2022/05/22 04:03:27;;;;;;;1.63;0.70;;;;;;;21.13;29.47;93668.50;4974437;28;20503;-74
2022/05/22 04:05:52;;;;;;;0.70;0.60;;;;;;;21.15;27.14;93672.41;4967362;28;20048;-74
2022/05/22 04:08:19;;;;;;;1.98;0.50;;;;;;;21.19;27.01;93672.41;4972913;28;20088;-73
2022/05/22 04:10:45;;;;;;;1.38;0.52;;;;;;;21.23;26.62;93668.53;4974388;28;20030;-72
2022/05/22 04:13:11;;;;;;;1.15;0.70;;;;;;;21.18;27.32;93674.31;4969982;28;20133;-75
2022/05/22 04:15:36;;;;;;;0.75;0.50;;;;;;;21.30;29.87;93678.59;4964054;28;20048;-73
2022/05/22 04:18:02;;;;;;;1.55;0.80;;;;;;;21.24;30.17;93664.69;4966151;28;20042;-74
2022/05/22 04:20:28;;;;;;;0.90;0.68;;;;;;;21.38;31.84;93680.16;4976103;28;20053;-73
2022/05/22 04:25:38;;;;;;;0.68;0.60;;;;;;;21.27;28.90;93655.78;4974327;28;20041;-72
2022/05/22 04:28:04;;;;;;;1.33;0.70;;;;;;;21.41;28.43;93674.00;4976785;28;20034;-74
2022/05/22 04:30:29;;;;;;;0.80;0.60;;;;;;;21.43;29.86;93674.38;4978221;28;20065;-74
2022/05/22 04:32:55;;;;;;;6.53;0.90;;;;;;;21.40;29.21;93673.22;4960530;28;20095;-73
2022/05/22 04:35:22;;;;;;;1.63;1.15;;;;;;;21.41;31.67;93669.34;4979188;28;20081;-74
2022/05/22 04:37:48;;;;;;;1.40;0.70;;;;;;;21.53;29.93;93681.72;4964998;28;20133;-74
2022/05/22 04:40:13;;;;;;;1.13;0.80;;;;;;;21.51;29.80;93673.22;4978266;28;20041;-75
2022/05/22 04:42:40;;;;;;;0.85;0.65;;;;;;;21.54;29.92;93685.22;4965494;28;20041;-73
2022/05/22 04:45:08;;;;;;;0.70;0.70;;;;;;;21.44;29.30;93668.59;4969479;28;20042;-74
2022/05/22 04:47:38;;;;;;;1.17;0.57;;;;;;;21.48;29.48;93695.63;4978507;28;20053;-75
2022/05/22 04:50:05;;;;;;;1.17;0.65;;;;;;;21.50;29.69;93697.97;4969864;28;20062;-76
2022/05/22 04:52:31;;;;;;;1.23;0.77;;;;;;;21.41;29.61;93696.38;4980705;28;20046;-75
2022/05/22 04:54:56;;;;;;;2.63;1.08;;;;;;;21.34;30.34;93680.16;4975786;28;20564;-75
2022/05/22 04:57:22;;;;;;;0.82;0.80;;;;;;;21.39;30.56;93685.19;4963196;28;20133;-75
2022/05/22 04:59:47;;;;;;;0.63;0.63;;;;;;;21.32;30.08;93677.06;4979147;28;20426;-74
2022/05/22 05:02:13;;;;;;;1.00;0.90;;;;;;;21.46;30.74;93677.06;4979947;28;20033;-76
2022/05/22 05:04:38;;;;;;;0.60;0.50;;;;;;;21.40;30.53;93667.81;4973338;28;20120;-75
2022/05/22 05:07:05;;;;;;;0.63;0.60;;;;;;;21.63;29.31;93691.03;4969762;28;20421;-75
2022/05/22 05:09:31;;;;;;;0.85;0.80;;;;;;;21.49;29.15;93674.75;4974420;28;20408;-76
2022/05/22 05:12:00;;;;;;;1.17;0.85;;;;;;;21.54;29.37;93688.69;4975001;28;20034;-75
2022/05/22 05:14:26;;;;;;;0.93;0.73;;;;;;;21.59;29.54;93679.44;4967085;28;20029;-76
2022/05/22 05:16:51;;;;;;;1.98;0.95;;;;;;;21.63;30.09;93691.81;4975969;28;20018;-76
2022/05/22 05:19:16;;;;;;;0.95;0.80;;;;;;;21.59;30.03;93682.16;4975314;28;20061;-74
2022/05/22 05:21:42;;;;;;;1.20;0.65;;;;;;;21.53;29.32;93670.13;4965877;28;20034;-75
2022/05/22 05:24:07;;;;;;;0.70;0.70;;;;;;;21.57;29.16;93671.69;4970442;28;20054;-75
2022/05/22 05:26:35;;;;;;;0.90;0.60;;;;;;;21.74;29.48;93691.81;4974091;28;20030;-75
2022/05/22 05:29:00;;;;;;;1.00;0.70;;;;;;;21.74;29.54;93691.81;4967972;28;20249;-75
2022/05/22 05:31:26;;;;;;;0.70;0.70;;;;;;;21.80;31.33;93690.28;4989078;28;20438;-75
2022/05/22 05:33:51;;;;;;;3.35;1.60;;;;;;;21.90;30.45;93683.31;4976199;28;20034;-75
2022/05/22 05:36:16;;;;;;;2.10;0.80;;;;;;;21.84;30.39;93669.41;4967805;28;20034;-74
2022/05/22 05:38:42;;;;;;;0.88;0.60;;;;;;;21.84;29.92;93672.88;4969662;28;20384;-73
2022/05/22 05:41:07;;;;;;;0.95;0.70;;;;;;;22.05;31.78;93693.72;4977054;28;20033;-74
2022/05/22 05:43:33;;;;;;;1.10;0.65;;;;;;;22.07;30.66;93694.13;4972930;28;20062;-74
2022/05/22 05:46:00;;;;;;;0.45;0.45;;;;;;;22.16;31.45;93691.81;4957588;28;20030;-73
2022/05/22 05:48:25;;;;;;;0.77;0.77;;;;;;;22.22;31.26;93684.88;4975149;28;20121;-75
2022/05/22 05:50:51;;;;;;;0.73;0.65;;;;;;;22.15;30.55;93679.41;4975030;28;20068;-74
2022/05/22 05:53:16;;;;;;;1.83;1.02;;;;;;;22.13;29.44;93692.59;4979050;28;20052;-74
2022/05/22 05:55:42;;;;;;;1.50;0.60;;;;;;;21.96;30.95;93698.78;4963809;28;20454;-74
2022/05/22 05:58:07;;;;;;;2.67;0.80;;;;;;;21.99;31.25;93692.59;4971550;28;20290;-74
2022/05/22 06:00:33;;;;;;;2.08;0.70;;;;;;;22.00;30.40;93698.78;4969134;28;20031;-74
2022/05/22 06:02:58;;;;;;;1.38;0.85;;;;;;;21.95;30.71;93705.34;4964711;28;20041;-74
2022/05/22 06:05:24;;;;;;;1.20;0.80;;;;;;;21.94;29.52;93714.66;4970783;28;20029;-74
2022/05/22 06:07:51;;;;;;;2.10;0.88;;;;;;;21.83;29.98;93694.91;4962637;28;20240;-75
2022/05/22 06:10:18;;;;;;;1.55;1.00;;;;;;;21.89;30.59;93709.63;4979251;28;20526;-74
2022/05/22 06:12:43;;;;;;;1.52;0.98;;;;;;;21.80;30.24;93698.41;4956524;28;20415;-74
2022/05/22 06:15:09;;;;;;;0.82;0.77;;;;;;;21.84;29.43;93710.00;4975846;28;20042;-73
2022/05/22 06:17:43;;;;;;;1.33;0.77;;;;;;;21.74;29.99;93708.06;4975086;28;20035;-74
2022/05/22 06:20:09;;;;;;;2.53;0.88;;;;;;;21.43;30.45;93704.91;4979172;28;20038;-74
2022/05/22 06:22:35;;;;;;;1.60;1.33;;;;;;;21.34;30.89;93707.22;4966688;28;20035;-74
2022/05/22 06:25:06;;;;;;;10.15;1.38;;;;;;;21.24;31.01;93718.00;4969616;28;20038;-74
2022/05/22 06:27:31;;;;;;;3.50;1.10;;;;;;;21.34;30.72;93711.84;4962671;28;20038;-73
2022/05/22 06:29:57;;;;;;;0.85;0.80;;;;;;;21.13;31.24;93712.56;4965421;28;20499;-73
2022/05/22 06:32:23;;;;;;;8.18;2.33;;;;;;;21.18;30.96;93706.78;4976830;28;20600;-73
2022/05/22 06:34:48;;;;;;;0.90;0.77;;;;;;;21.01;31.28;93696.69;4962742;28;20475;-74
2022/05/22 06:37:20;;;;;;;1.50;1.27;;;;;;;21.19;31.34;93705.63;4972390;28;20518;-73
2022/05/22 06:39:52;;;;;;;1.52;1.02;;;;;;;21.04;31.43;93714.84;4963628;28;20030;-73
2022/05/22 06:42:17;;;;;;;1.33;0.90;;;;;;;20.91;31.44;93713.66;4968849;28;20041;-73
2022/05/22 06:44:42;;;;;;;4.57;1.00;;;;;;;20.68;32.24;93696.94;4976290;28;20502;-72
2022/05/22 06:47:08;;;;;;;1.40;0.80;;;;;;;20.87;31.96;93704.75;4962644;28;20467;-74
2022/05/22 06:49:34;;;;;;;1.08;0.98;;;;;;;20.93;32.70;93703.22;4964839;28;20558;-75
2022/05/22 06:52:00;;;;;;;2.67;0.90;;;;;;;21.02;32.09;93706.34;4977188;28;20129;-74
2022/05/22 06:54:25;;;;;;;1.58;0.80;;;;;;;21.19;31.84;93692.09;4967413;28;20698;-74
2022/05/22 06:56:51;;;;;;;1.70;1.00;;;;;;;21.26;31.76;93697.53;4961994;28;20104;-75
2022/05/22 06:59:16;;;;;;;2.15;1.05;;;;;;;21.20;31.67;93690.94;4976127;28;20145;-74
2022/05/22 07:01:42;;;;;;;1.90;0.90;;;;;;;21.09;31.32;93705.59;4979936;28;20019;-74
2022/05/22 07:04:07;;;;;;;1.83;0.80;;;;;;;20.99;31.49;93696.28;4952500;28;20049;-73
2022/05/22 07:06:33;;;;;;;1.95;1.20;;;;;;;20.91;32.67;93689.31;4967966;28;20043;-72
2022/05/22 07:08:58;;;;;;;0.95;0.80;;;;;;;20.85;32.51;93683.47;4976606;28;20104;-73
2022/05/22 07:11:39;;;;;;;1.13;1.02;;;;;;;20.93;32.46;93670.78;4965489;28;20018;-74
2022/05/22 07:14:10;;;;;;;3.83;1.00;;;;;;;21.01;32.41;93656.91;4972625;28;20018;-74
2022/05/22 07:16:37;;;;;;;1.30;1.00;;;;;;;21.29;32.39;93685.94;4966700;28;20030;-74
2022/05/22 07:19:03;;;;;;;1.05;0.80;;;;;;;21.42;32.34;93681.72;4968042;28;20038;-73
2022/05/22 07:21:29;;;;;;;0.90;0.80;;;;;;;21.36;32.45;93660.84;4963561;28;20692;-73
2022/05/22 07:23:54;;;;;;;2.10;0.80;;;;;;;21.47;32.78;93656.19;4970670;28;20041;-73
2022/05/22 07:26:21;;;;;;;2.97;1.20;;;;;;;21.46;32.34;93660.84;4969238;28;20030;-73
2022/05/22 07:28:47;;;;;;;0.73;0.70;;;;;;;21.58;32.71;93677.88;4969228;28;20725;-75
2022/05/22 07:31:18;;;;;;;1.80;0.85;;;;;;;21.50;33.19;93687.13;4969588;28;20062;-76
2022/05/22 07:33:44;;;;;;;2.42;1.00;;;;;;;21.54;32.47;93679.78;4966070;28;20104;-74
2022/05/22 07:36:10;;;;;;;1.63;1.35;;;;;;;21.68;31.26;93685.25;4964180;28;20562;-74
2022/05/22 07:38:35;;;;;;;2.00;1.77;;;;;;;21.71;31.06;93681.75;4969643;28;20034;-75
2022/05/22 07:41:01;;;;;;;1.73;1.02;;;;;;;21.66;31.87;93679.44;4969469;28;20318;-75
2022/05/22 07:43:27;;;;;;;1.30;0.80;;;;;;;21.67;32.17;93691.81;4966742;28;20030;-75
2022/05/22 07:45:53;;;;;;;2.97;1.13;;;;;;;21.52;31.12;93682.88;4974830;28;20034;-76
2022/05/22 07:48:19;;;;;;;1.00;0.90;;;;;;;21.63;31.91;93685.63;4966427;28;20459;-75
2022/05/22 07:50:44;;;;;;;2.65;0.90;;;;;;;21.54;31.98;93666.28;4958205;28;20092;-76
2022/05/22 07:53:10;;;;;;;3.75;0.90;;;;;;;21.53;32.57;93670.13;4978812;28;20510;-75
2022/05/22 07:55:35;;;;;;;1.42;0.93;;;;;;;21.54;32.64;93666.28;4958665;28;20031;-76
2022/05/22 07:58:01;;;;;;;1.48;0.90;;;;;;;21.44;32.36;93652.34;4965550;28;20042;-74
2022/05/22 08:00:26;;;;;;;1.77;1.02;;;;;;;21.61;32.29;93660.91;4971165;28;20079;-75
2022/05/22 08:02:51;;;;;;;4.10;1.20;;;;;;;21.45;33.46;93642.31;4965239;28;20519;-75
2022/05/22 08:05:19;;;;;;;1.52;1.20;;;;;;;21.56;34.71;93661.28;4974985;28;20377;-75
2022/05/22 08:07:44;;;;;;;4.53;1.30;;;;;;;21.58;34.56;93650.84;4968094;28;20074;-74
2022/05/22 08:10:12;;;;;;;1.67;1.33;;;;;;;21.54;35.05;93650.03;4977466;28;20046;-74
2022/05/22 08:12:41;;;;;;;1.92;1.35;;;;;;;21.61;35.59;93637.28;4971114;28;20777;-75
2022/05/22 08:15:08;;;;;;;5.47;1.42;;;;;;;21.54;35.99;93622.97;4962274;28;20035;-75
2022/05/22 08:17:36;;;;;;;2.50;1.20;;;;;;;21.63;36.01;93631.50;4975432;28;20073;-75
2022/05/22 08:20:08;;;;;;;3.78;1.15;;;;;;;21.43;36.08;93637.28;4998428;28;20037;-75
2022/05/22 08:22:34;;;;;;;1.95;1.10;;;;;;;21.31;36.21;93621.44;4979116;28;20482;-74
2022/05/22 08:25:04;;;;;;;1.45;0.95;;;;;;;21.23;36.08;93636.09;4994314;28;20405;-75
2022/05/22 08:27:30;;;;;;;2.00;1.20;;;;;;;21.02;36.41;93630.66;4979480;28;20034;-75
2022/05/22 08:29:55;;;;;;;1.15;0.90;;;;;;;20.95;36.81;93627.94;4992067;28;20483;-76
2022/05/22 08:32:21;;;;;;;4.72;1.00;;;;;;;20.87;36.82;93615.56;4990091;28;20582;-75
2022/05/22 08:34:46;;;;;;;2.35;1.38;;;;;;;21.01;36.83;93623.69;4984106;28;20064;-75
2022/05/22 08:37:12;;;;;;;1.92;1.13;;;;;;;21.01;37.35;93596.66;4979238;28;20813;-75
2022/05/22 08:39:37;;;;;;;1.50;0.90;;;;;;;21.23;37.21;93614.44;4966722;28;20380;-75
2022/05/22 08:42:08;;;;;;;1.92;1.00;;;;;;;21.30;37.88;93613.69;4971938;28;20224;-75
2022/05/22 08:44:34;;;;;;;1.45;1.08;;;;;;;21.22;36.38;93618.31;4971150;28;20461;-75
2022/05/22 08:47:03;;;;;;;2.15;1.30;;;;;;;21.22;36.99;93612.91;4986025;28;20128;-75
2022/05/22 08:49:49;;;;;;;3.22;1.10;;;;;;;21.12;37.10;93604.78;4992480;28;20381;-75
2022/05/22 08:52:33;;;;;;;;;;;;;;;21.16;37.12;93614.47;4998385;28;20045;-76
2022/05/22 08:55:20;;;;;;;2.72;1.70;;;;;;;21.06;37.50;93604.41;4988136;28;20412;-75
2022/05/22 09:00:40;;;;;;;1.80;1.30;;;;;;;20.84;37.88;93613.56;4990415;28;20045;-75
2022/05/22 09:03:18;;;;;;;2.92;1.40;;;;;;;20.60;38.56;93588.03;4996460;28;20080;-75
2022/05/22 09:05:46;;;;;;;1.70;1.27;;;;;;;20.59;38.93;93603.47;4982245;28;20069;-74
2022/05/22 09:08:20;;;;;;;2.90;1.85;;;;;;;20.56;39.38;93611.56;4994634;28;20556;-74
2022/05/22 09:11:14;;;;;;;1.35;1.17;;;;;;;20.54;39.65;93617.34;4975824;28;20038;-76
2022/05/22 09:13:48;;;;;;;1.60;1.40;;;;;;;20.54;39.92;93624.66;4967408;28;20047;-75
2022/05/22 09:16:20;;;;;;;1.38;1.00;;;;;;;20.48;37.69;93628.91;4993080;28;20029;-74
2022/05/22 09:19:02;;;;;;;2.35;1.52;;;;;;;20.43;37.93;93624.66;4978803;28;20168;-74
2022/05/22 09:21:31;;;;;;;5.70;1.52;;;;;;;20.45;37.65;93624.25;4968874;28;20077;-76
2022/05/22 09:23:59;;;;;;;1.55;1.25;;;;;;;20.39;37.62;93607.63;4983138;28;20116;-75
2022/05/22 09:26:44;;;;;;;3.05;1.10;;;;;;;20.37;36.44;93607.25;4988764;28;21448;-72
2022/05/22 09:29:19;;;;;;;1.55;0.90;;;;;;;20.34;35.80;93609.91;4994175;28;20036;-75
2022/05/22 09:32:03;;;;;;;;;;;;;;;20.27;36.88;93602.56;4973670;28;20038;-75
2022/05/22 09:34:39;;;;;;;1.60;0.90;;;;;;;20.37;36.55;93598.38;4969987;28;20237;-75
2022/05/22 09:37:20;;;;;;;1.05;0.75;;;;;;;20.35;35.57;93598.75;4994326;28;20030;-75
2022/05/22 09:39:56;;;;;;;1.83;1.00;;;;;;;20.33;35.70;93590.25;4986068;28;20589;-74
2022/05/22 09:42:44;;;;;;;1.02;0.70;;;;;;;20.23;35.92;93574.78;4984241;28;20132;-75
2022/05/22 09:45:43;;;;;;;4.13;0.98;;;;;;;20.21;36.31;93566.28;4989630;28;20881;-75
2022/05/22 09:48:44;;;;;;;1.25;1.00;;;;;;;20.31;36.27;93589.84;4990423;28;20053;-74
2022/05/22 09:51:47;;;;;;;1.13;0.77;;;;;;;20.32;35.61;93599.50;4996013;28;20065;-74
2022/05/22 09:54:21;;;;;;;2.60;0.65;;;;;;;20.44;36.11;93580.25;4995031;28;20286;-75
2022/05/22 09:57:18;;;;;;;0.85;0.80;;;;;;;20.35;37.16;93581.75;4988518;28;20091;-75
2022/05/22 09:59:46;;;;;;;1.15;0.70;;;;;;;20.40;37.95;93574.06;4988331;28;20050;-76
2022/05/22 10:02:41;;;;;;;1.13;0.90;;;;;;;20.39;38.19;93545.50;5001781;28;20033;-74
2022/05/22 10:05:31;;;;;;;1.67;1.00;;;;;;;20.56;38.00;93554.84;4996207;28;20491;-74
2022/05/22 10:07:56;;;;;;;1.33;0.90;;;;;;;20.65;38.07;93552.53;4984673;28;20140;-76
2022/05/22 10:10:36;;;;;;;1.02;0.90;;;;;;;20.73;37.72;93547.94;4999482;28;20040;-74
2022/05/22 10:13:09;;;;;;;1.00;0.88;;;;;;;20.75;37.43;93540.19;4982534;28;20038;-75
2022/05/22 10:16:01;;;;;;;1.15;0.70;;;;;;;20.93;37.15;93532.91;4993730;28;20065;-75
2022/05/22 10:19:12;;;;;;;2.15;1.20;;;;;;;20.92;37.53;93540.25;4989529;28;20048;-75
2022/05/22 10:21:49;;;;;;;1.27;0.75;;;;;;;21.00;37.18;93535.63;4961859;28;20042;-75
2022/05/22 10:24:31;;;;;;;1.23;0.88;;;;;;;21.06;38.03;93531.41;4989053;28;21034;-75
2022/05/22 10:27:15;;;;;;;2.58;1.10;;;;;;;21.18;37.17;93533.72;4992297;28;20087;-75
2022/05/22 10:29:46;;;;;;;1.10;1.00;;;;;;;21.27;37.78;93538.72;4986447;28;20649;-74
2022/05/22 10:32:28;;;;;;;2.03;0.98;;;;;;;21.22;36.83;93510.13;4995171;28;20180;-74
2022/05/22 10:35:09;;;;;;;1.33;1.00;;;;;;;21.39;37.50;93531.00;4998488;28;20552;-75
2022/05/22 10:37:53;;;;;;;3.22;1.00;;;;;;;21.56;37.02;93529.44;4983891;28;20391;-75
2022/05/22 10:40:23;;;;;;;1.77;1.17;;;;;;;21.65;36.25;93521.72;4984329;28;20065;-74
2022/05/22 10:42:52;;;;;;;1.50;1.23;;;;;;;21.60;36.84;93524.06;4983691;28;20061;-75
2022/05/22 10:45:33;;;;;;;3.38;1.63;;;;;;;21.65;37.43;93518.25;4994064;28;20065;-75
2022/05/22 10:48:11;;;;;;;2.00;1.20;;;;;;;21.72;37.18;93516.28;4992134;28;20042;-76
2022/05/22 10:50:49;;;;;;;1.20;1.05;;;;;;;21.89;36.74;93517.41;4997315;28;20072;-74
2022/05/22 10:53:48;;;;;;;2.67;1.20;;;;;;;21.88;37.50;93491.50;4997541;28;20402;-75
2022/05/22 10:56:14;;;;;;;1.65;1.30;;;;;;;22.14;36.92;93518.09;4981189;28;20933;-76
2022/05/22 10:58:48;;;;;;;1.63;1.42;;;;;;;22.16;34.94;93507.63;4997600;28;20026;-75
2022/05/22 11:01:19;;;;;;;1.40;1.30;;;;;;;22.23;35.33;93506.88;4998354;28;20033;-75
2022/05/22 11:03:44;;;;;;;1.17;0.95;;;;;;;22.17;34.41;93511.88;4965428;28;20031;-75
2022/05/22 11:06:22;;;;;;;1.45;1.17;;;;;;;21.98;34.11;93495.31;4968209;28;20057;-75
2022/05/22 11:08:53;;;;;;;1.67;1.38;;;;;;;22.00;34.76;93518.13;4977395;28;20568;-75
2022/05/22 11:11:24;;;;;;;1.65;1.30;;;;;;;21.89;35.51;93509.28;4972909;28;20030;-76
2022/05/22 11:13:51;;;;;;;2.63;2.20;;;;;;;21.97;36.10;93510.78;4973613;28;20030;-75
2022/05/22 11:16:26;;;;;;;1.40;1.30;;;;;;;22.08;36.74;93508.84;4972496;28;20635;-75
2022/05/22 11:19:32;;;;;;;2.10;1.33;;;;;;;22.06;35.98;93503.03;4971732;28;20038;-76
2022/05/22 11:22:19;;;;;;;3.83;1.30;;;;;;;21.99;36.65;93502.28;4983495;28;20045;-75
2022/05/22 11:24:55;;;;;;;2.47;2.05;;;;;;;21.92;36.97;93510.44;4971200;28;20096;-75
2022/05/22 11:27:35;;;;;;;2.13;1.50;;;;;;;21.84;37.11;93498.84;4969192;28;20034;-73
2022/05/22 11:30:45;;;;;;;3.70;1.92;;;;;;;21.84;37.64;93494.22;4969422;28;20431;-75
2022/05/22 11:33:32;;;;;;;5.63;2.88;;;;;;;21.69;37.87;93483.81;4954722;28;20589;-75
2022/05/22 11:36:01;;;;;;;1.73;1.20;;;;;;;21.81;38.00;93480.69;4983610;28;20351;-73
2022/05/22 11:38:32;;;;;;;3.42;1.27;;;;;;;21.83;38.16;93481.06;4995097;28;20053;-74
2022/05/22 11:41:10;;;;;;;1.42;1.30;;;;;;;21.92;38.41;93484.13;4984767;28;20033;-74
2022/05/22 11:44:19;;;;;;;1.88;1.13;;;;;;;21.93;37.49;93480.25;4994068;28;20033;-75
2022/05/22 11:46:47;;;;;;;1.70;1.20;;;;;;;21.89;36.28;93482.22;4968964;28;20064;-75
2022/05/22 11:49:16;;;;;;;1.67;1.02;;;;;;;21.59;36.46;93479.22;4997610;28;20073;-74
2022/05/22 11:55:39;;;;;;;1.40;1.20;;;;;;;21.37;36.50;93494.66;4983149;28;20133;-75